createdAt,value
2022-10-09T00:00:59.752Z,0
2022-10-09T00:03:58.918Z,0
2022-10-09T00:06:58.847Z,0
2022-10-09T00:09:59.193Z,0
2022-10-09T00:12:59.306Z,0
2022-10-09T00:15:59.391Z,0
2022-10-09T00:18:59.157Z,0
2022-10-09T00:21:58.677Z,0
2022-10-09T00:24:58.268Z,0
2022-10-09T00:27:58.832Z,0
2022-10-09T00:30:58.920Z,0
2022-10-09T00:33:59.248Z,0
2022-10-09T00:36:58.827Z,0
2022-10-09T00:39:59.381Z,0
2022-10-09T00:42:58.615Z,0
2022-10-09T00:45:59.349Z,0
2022-10-09T00:48:58.289Z,0
2022-10-09T00:51:59.161Z,0
2022-10-09T00:54:59.287Z,0
2022-10-09T00:57:59.166Z,0
2022-10-09T01:00:58.957Z,0
2022-10-09T01:03:58.358Z,0
2022-10-09T01:06:58.208Z,0
2022-10-09T01:09:58.362Z,0
2022-10-09T01:12:58.971Z,0
2022-10-09T01:15:59.579Z,0
2022-10-09T01:18:58.841Z,0
2022-10-09T01:21:58.348Z,0
2022-10-09T01:24:58.618Z,0
2022-10-09T01:27:58.832Z,0
2022-10-09T01:30:59.262Z,0
2022-10-09T01:33:58.687Z,0
2022-10-09T01:36:59.466Z,0
2022-10-09T01:39:58.396Z,0
2022-10-09T01:42:59.422Z,0
2022-10-09T01:45:58.893Z,0
2022-10-09T01:48:58.680Z,0
2022-10-09T01:51:58.671Z,0
2022-10-09T01:54:59.196Z,0
2022-10-09T01:57:58.326Z,0
2022-10-09T02:00:58.622Z,0
2022-10-09T02:03:58.197Z,0
2022-10-09T02:06:58.205Z,0
2022-10-09T02:09:58.939Z,0
2022-10-09T02:12:59.157Z,0
2022-10-09T02:15:59.095Z,0
2022-10-09T02:18:59.023Z,0
2022-10-09T02:21:58.956Z,0
2022-10-09T02:24:58.888Z,0
2022-10-09T02:27:58.894Z,0
2022-10-09T02:30:59.751Z,0
2022-10-09T02:33:58.826Z,0
2022-10-09T02:37:01.571Z,0
2022-10-09T02:39:58.635Z,0
2022-10-09T02:42:58.601Z,0
2022-10-09T02:45:59.833Z,0
2022-10-09T02:48:58.881Z,0
2022-10-09T02:51:58.652Z,0
2022-10-09T02:54:59.004Z,0
2022-10-09T02:57:59.286Z,0
2022-10-09T03:00:59.349Z,0
2022-10-09T03:03:59.144Z,0
2022-10-09T03:06:58.927Z,0
2022-10-09T03:09:59.163Z,0
2022-10-09T03:12:58.648Z,0
2022-10-09T03:15:58.473Z,0
2022-10-09T03:18:59.050Z,0
2022-10-09T03:21:59.197Z,0
2022-10-09T03:24:59.212Z,0
2022-10-09T03:27:59.438Z,0
2022-10-09T03:30:58.809Z,0
2022-10-09T03:33:58.988Z,0
2022-10-09T03:36:58.546Z,0
2022-10-09T03:39:58.836Z,0
2022-10-09T03:42:59.216Z,0
2022-10-09T03:46:01.080Z,0
2022-10-09T03:48:58.817Z,0
2022-10-09T03:51:59.542Z,0
2022-10-09T03:54:58.776Z,0
2022-10-09T03:57:58.582Z,0
2022-10-09T04:00:58.720Z,0
2022-10-09T04:03:58.762Z,0
2022-10-09T04:06:58.889Z,0
2022-10-09T04:09:59.529Z,0
2022-10-09T04:12:58.477Z,0
2022-10-09T04:15:59.305Z,0
2022-10-09T04:18:59.262Z,0
2022-10-09T04:21:59.328Z,0
2022-10-09T04:24:58.684Z,0
2022-10-09T04:27:59.293Z,0
2022-10-09T04:30:59.097Z,0
2022-10-09T04:33:59.069Z,0
2022-10-09T04:36:59.141Z,0
2022-10-09T04:39:59.084Z,0
2022-10-09T04:42:58.541Z,0
2022-10-09T04:45:58.551Z,0
2022-10-09T04:48:59.088Z,0
2022-10-09T04:51:58.942Z,0
2022-10-09T04:54:59.457Z,0
2022-10-09T04:57:59.700Z,0
2022-10-09T05:00:58.844Z,0
2022-10-09T05:03:58.946Z,0
2022-10-09T05:06:59.071Z,0
2022-10-09T05:09:59.258Z,1
2022-10-09T05:12:58.970Z,2.3333333333333335
2022-10-09T05:15:58.866Z,4.333333333333333
2022-10-09T05:18:58.568Z,7
2022-10-09T05:21:58.934Z,10
2022-10-09T05:24:58.537Z,13
2022-10-09T05:27:59.549Z,16.333333333333332
2022-10-09T05:30:58.888Z,19
2022-10-09T05:33:59.265Z,23.666666666666668
2022-10-09T05:37:08.147Z,27.666666666666668
2022-10-09T05:39:59.357Z,32.666666666666664
2022-10-09T05:42:59.198Z,39
2022-10-09T05:45:59.686Z,47.333333333333336
2022-10-09T05:48:59.043Z,48.333333333333336
2022-10-09T05:51:59.074Z,53.333333333333336
2022-10-09T05:54:59.225Z,59
2022-10-09T05:57:58.689Z,65
2022-10-09T06:00:59.113Z,69.66666666666667
2022-10-09T06:03:58.276Z,77.33333333333333
2022-10-09T06:06:58.884Z,88
2022-10-09T06:09:59.450Z,94
2022-10-09T06:12:58.749Z,95
2022-10-09T06:15:58.814Z,103.33333333333333
2022-10-09T06:18:58.625Z,127.33333333333333
2022-10-09T06:21:59.026Z,124.66666666666667
2022-10-09T06:24:58.511Z,136.66666666666666
2022-10-09T06:27:59.605Z,147
2022-10-09T06:30:59.108Z,158
2022-10-09T06:33:59.344Z,168
2022-10-09T06:36:58.504Z,179
2022-10-09T06:39:58.588Z,178.66666666666666
2022-10-09T06:42:58.900Z,176
2022-10-09T06:45:58.924Z,183.33333333333334
2022-10-09T06:48:59.331Z,196
2022-10-09T06:51:59.098Z,192.33333333333334
2022-10-09T06:54:59.016Z,207
2022-10-09T06:57:58.593Z,209
2022-10-09T07:00:58.893Z,212
2022-10-09T07:03:58.307Z,216
2022-10-09T07:06:58.764Z,219.66666666666666
2022-10-09T07:09:59.055Z,223.66666666666666
2022-10-09T07:12:59.402Z,227
2022-10-09T07:16:02.536Z,227.66666666666666
2022-10-09T07:18:58.898Z,229.66666666666666
2022-10-09T07:21:59.214Z,232.66666666666666
2022-10-09T07:24:58.933Z,236
2022-10-09T07:27:59.050Z,237.66666666666666
2022-10-09T07:30:58.789Z,240
2022-10-09T07:33:58.718Z,244
2022-10-09T07:36:59.069Z,248.66666666666666
2022-10-09T07:39:59.219Z,251.33333333333334
2022-10-09T07:42:59.143Z,253.66666666666666
2022-10-09T07:45:58.573Z,254.33333333333334
2022-10-09T07:48:59.067Z,259.3333333333333
2022-10-09T07:51:59.051Z,263.3333333333333
2022-10-09T07:54:58.402Z,266.6666666666667
2022-10-09T07:57:58.305Z,269.6666666666667
2022-10-09T08:00:58.580Z,268
2022-10-09T08:03:59.303Z,276
2022-10-09T08:06:58.233Z,279.3333333333333
2022-10-09T08:09:59.263Z,281
2022-10-09T08:12:58.698Z,281.6666666666667
2022-10-09T08:15:58.851Z,287.6666666666667
2022-10-09T08:18:59.067Z,288
2022-10-09T08:22:02.628Z,290
2022-10-09T08:24:58.715Z,295
2022-10-09T08:27:59.219Z,298.3333333333333
2022-10-09T08:30:59.077Z,302.3333333333333
2022-10-09T08:33:58.983Z,303
2022-10-09T08:36:59.253Z,309
2022-10-09T08:39:58.859Z,314.3333333333333
2022-10-09T08:42:59.034Z,319.3333333333333
2022-10-09T08:45:58.913Z,329.6666666666667
2022-10-09T08:48:58.707Z,335
2022-10-09T08:51:59.586Z,341.3333333333333
2022-10-09T08:54:58.598Z,347.6666666666667
2022-10-09T08:57:58.933Z,356.6666666666667
2022-10-09T09:00:58.586Z,362.6666666666667
2022-10-09T09:03:59.393Z,367.3333333333333
2022-10-09T09:06:58.854Z,371.3333333333333
2022-10-09T09:09:58.500Z,377.6666666666667
2022-10-09T09:12:58.323Z,380.3333333333333
2022-10-09T09:15:59.472Z,384
2022-10-09T09:18:58.262Z,386
2022-10-09T09:21:59.210Z,391.6666666666667
2022-10-09T09:24:58.165Z,392
2022-10-09T09:27:59.131Z,393.3333333333333
2022-10-09T09:30:59.037Z,397
2022-10-09T09:33:59.175Z,400.3333333333333
2022-10-09T09:36:58.906Z,398.6666666666667
2022-10-09T09:43:04.098Z,404.6666666666667
2022-10-09T09:45:58.875Z,405.3333333333333
2022-10-09T09:48:59.189Z,408.3333333333333
2022-10-09T09:51:58.688Z,408.3333333333333
2022-10-09T09:54:58.975Z,410.3333333333333
2022-10-09T09:57:58.790Z,410.6666666666667
2022-10-09T10:00:59.109Z,412.6666666666667
2022-10-09T10:03:58.579Z,415.6666666666667
2022-10-09T10:06:59.530Z,416
2022-10-09T10:09:59.013Z,421
2022-10-09T10:12:59.109Z,416.3333333333333
2022-10-09T10:15:58.680Z,418.3333333333333
2022-10-09T10:18:59.263Z,423
2022-10-09T10:21:58.523Z,426
2022-10-09T10:24:59.240Z,427.3333333333333
2022-10-09T10:27:59.329Z,424.3333333333333
2022-10-09T10:30:59.308Z,417.6666666666667
2022-10-09T10:33:59.176Z,406.6666666666667
2022-10-09T10:37:02.579Z,430.3333333333333
2022-10-09T10:39:58.978Z,428.6666666666667
2022-10-09T10:42:59.433Z,419.3333333333333
2022-10-09T10:45:58.598Z,397
2022-10-09T10:48:59.095Z,407
2022-10-09T10:51:58.790Z,407.3333333333333
2022-10-09T10:54:59.322Z,416
2022-10-09T10:57:58.918Z,422.6666666666667
2022-10-09T11:00:58.974Z,408.3333333333333
2022-10-09T11:04:17.964Z,376.6666666666667
2022-10-09T11:06:59.522Z,381.6666666666667
2022-10-09T11:09:59.085Z,352.3333333333333
2022-10-09T11:12:59.956Z,355
2022-10-09T11:15:58.759Z,358
2022-10-09T11:18:59.275Z,338.6666666666667
2022-10-09T11:21:58.896Z,370.6666666666667
2022-10-09T11:24:59.885Z,353
2022-10-09T11:27:59.305Z,353.6666666666667
2022-10-09T11:30:59.078Z,346.6666666666667
2022-10-09T11:33:58.468Z,331.3333333333333
2022-10-09T11:36:59.324Z,322.6666666666667
2022-10-09T11:39:58.775Z,340.3333333333333
2022-10-09T11:42:58.235Z,357
2022-10-09T11:45:59.797Z,339.3333333333333
2022-10-09T11:48:58.975Z,329
2022-10-09T11:51:58.974Z,327.6666666666667
2022-10-09T11:54:58.933Z,318.3333333333333
2022-10-09T11:57:59.159Z,321.6666666666667
2022-10-09T12:00:59.361Z,343
2022-10-09T12:04:00.641Z,351
2022-10-09T12:06:59.314Z,375
2022-10-09T12:09:59.270Z,353.3333333333333
2022-10-09T12:12:59.683Z,359.6666666666667
2022-10-09T12:15:58.866Z,374
2022-10-09T12:18:58.727Z,365.3333333333333
2022-10-09T12:21:58.821Z,354.3333333333333
2022-10-09T12:24:58.496Z,359.6666666666667
2022-10-09T12:27:59.013Z,363.6666666666667
2022-10-09T12:31:00.387Z,348.6666666666667
2022-10-09T12:33:59.000Z,359.3333333333333
2022-10-09T12:36:58.559Z,372.3333333333333
2022-10-09T12:39:59.473Z,375
2022-10-09T12:42:59.148Z,378
2022-10-09T12:45:59.045Z,357.6666666666667
2022-10-09T12:48:59.480Z,357.6666666666667
2022-10-09T12:51:58.995Z,331
2022-10-09T12:54:59.179Z,354
2022-10-09T12:57:58.800Z,348
2022-10-09T13:00:59.233Z,357.6666666666667
2022-10-09T13:03:58.518Z,342.6666666666667
2022-10-09T13:06:59.323Z,335
2022-10-09T13:09:58.574Z,341.3333333333333
2022-10-09T13:12:58.919Z,324
2022-10-09T13:15:59.139Z,329.3333333333333
2022-10-09T13:18:58.546Z,313.6666666666667
2022-10-09T13:21:58.959Z,304.3333333333333
2022-10-09T13:24:59.975Z,307
2022-10-09T13:27:59.324Z,324.6666666666667
2022-10-09T13:30:58.833Z,304.3333333333333
2022-10-09T13:33:59.688Z,300
2022-10-09T13:36:59.406Z,291.6666666666667
2022-10-09T13:39:59.187Z,287
2022-10-09T13:42:59.586Z,290
2022-10-09T13:45:59.643Z,266.3333333333333
2022-10-09T13:48:59.109Z,258.6666666666667
2022-10-09T13:51:58.815Z,269
2022-10-09T13:54:59.515Z,273.3333333333333
2022-10-09T13:57:58.604Z,279.3333333333333
2022-10-09T14:00:59.573Z,291.6666666666667
2022-10-09T14:03:58.571Z,303.3333333333333
2022-10-09T14:06:58.477Z,325
2022-10-09T14:09:58.714Z,310
2022-10-09T14:12:59.060Z,285
2022-10-09T14:15:59.218Z,275.6666666666667
2022-10-09T14:18:59.086Z,288
2022-10-09T14:21:59.518Z,301.3333333333333
2022-10-09T14:24:59.259Z,321
2022-10-09T14:27:59.027Z,353.3333333333333
2022-10-09T14:30:58.780Z,380.6666666666667
2022-10-09T14:33:58.456Z,363.6666666666667
2022-10-09T14:36:58.750Z,355.6666666666667
2022-10-09T14:39:59.394Z,370
2022-10-09T14:42:58.650Z,364
2022-10-09T14:45:59.064Z,360
2022-10-09T14:48:58.765Z,357.3333333333333
2022-10-09T14:51:59.472Z,343.6666666666667
2022-10-09T14:54:58.585Z,338
2022-10-09T14:57:58.709Z,324.6666666666667
2022-10-09T15:01:00.007Z,318
2022-10-09T15:03:58.647Z,319.6666666666667
2022-10-09T15:06:59.317Z,317
2022-10-09T15:09:59.448Z,311.6666666666667
2022-10-09T15:12:58.783Z,310
2022-10-09T15:15:58.820Z,307
2022-10-09T15:18:59.199Z,303.6666666666667
2022-10-09T15:21:58.383Z,295.6666666666667
2022-10-09T15:24:58.835Z,288.3333333333333
2022-10-09T15:27:58.843Z,273.3333333333333
2022-10-09T15:30:59.408Z,257.6666666666667
2022-10-09T15:33:59.084Z,243.66666666666666
2022-10-09T15:36:59.354Z,237.33333333333334
2022-10-09T15:39:58.394Z,234
2022-10-09T15:42:58.995Z,228
2022-10-09T15:45:59.204Z,218.66666666666666
2022-10-09T15:48:58.850Z,208
2022-10-09T15:51:58.893Z,197.66666666666666
2022-10-09T15:54:58.865Z,189.66666666666666
2022-10-09T15:57:59.240Z,185
2022-10-09T16:00:59.006Z,185.33333333333334
2022-10-09T16:03:58.586Z,180
2022-10-09T16:06:58.693Z,179.66666666666666
2022-10-09T16:09:58.985Z,176.33333333333334
2022-10-09T16:12:59.280Z,166
2022-10-09T16:15:59.278Z,151
2022-10-09T16:18:58.487Z,132
2022-10-09T16:21:59.067Z,113.66666666666667
2022-10-09T16:24:59.234Z,97.33333333333333
2022-10-09T16:27:59.395Z,84
2022-10-09T16:30:58.744Z,71
2022-10-09T16:33:58.806Z,58
2022-10-09T16:36:59.361Z,50
2022-10-09T16:39:59.377Z,43
2022-10-09T16:42:58.350Z,38
2022-10-09T16:45:59.232Z,32.666666666666664
2022-10-09T16:48:59.383Z,26.666666666666668
2022-10-09T16:51:59.289Z,21.333333333333332
2022-10-09T16:55:00.584Z,11.333333333333334
2022-10-09T16:57:59.154Z,6.333333333333333
2022-10-09T17:00:59.180Z,2
2022-10-09T17:03:58.854Z,1.3333333333333333
2022-10-09T17:06:59.376Z,1
2022-10-09T17:09:58.834Z,0.6666666666666666
2022-10-09T17:12:58.866Z,0.3333333333333333
2022-10-09T17:15:59.749Z,0.6666666666666666
2022-10-09T17:18:58.824Z,0.3333333333333333
2022-10-09T17:21:58.891Z,0
2022-10-09T17:24:59.575Z,0
2022-10-09T17:27:58.860Z,0.3333333333333333
2022-10-09T17:30:59.485Z,0.3333333333333333
2022-10-09T17:33:58.834Z,0
2022-10-09T17:36:59.406Z,0
2022-10-09T17:39:59.556Z,0.3333333333333333
2022-10-09T17:42:59.175Z,0.6666666666666666
2022-10-09T17:45:58.655Z,0.3333333333333333
2022-10-09T17:48:58.168Z,0
2022-10-09T17:51:58.660Z,0
2022-10-09T17:54:59.166Z,0
2022-10-09T17:57:58.260Z,0
2022-10-09T18:01:25.986Z,0.3333333333333333
2022-10-09T18:03:59.555Z,0
2022-10-09T18:06:58.868Z,0.3333333333333333
2022-10-09T18:09:58.937Z,0
2022-10-09T18:12:59.087Z,0.3333333333333333
2022-10-09T18:15:59.424Z,0.3333333333333333
2022-10-09T18:18:58.749Z,0
2022-10-09T18:21:58.907Z,0
2022-10-09T18:24:59.220Z,0
2022-10-09T18:27:59.314Z,0
2022-10-09T18:30:58.743Z,0
2022-10-09T18:33:59.049Z,0.6666666666666666
2022-10-09T18:36:59.447Z,0
2022-10-09T18:39:58.916Z,0
2022-10-09T18:42:58.634Z,0.3333333333333333
2022-10-09T18:45:59.001Z,1
2022-10-09T18:48:58.955Z,0
2022-10-09T18:51:59.195Z,0
2022-10-09T18:54:58.484Z,0
2022-10-09T18:57:58.541Z,0.3333333333333333
2022-10-09T19:00:59.242Z,0
2022-10-09T19:03:59.421Z,0.3333333333333333
2022-10-09T19:06:59.019Z,0
2022-10-09T19:09:59.660Z,0.3333333333333333
2022-10-09T19:12:59.122Z,1
2022-10-09T19:15:59.209Z,0.3333333333333333
2022-10-09T19:18:59.171Z,0
2022-10-09T19:21:59.242Z,0.3333333333333333
2022-10-09T19:24:58.849Z,0.3333333333333333
2022-10-09T19:27:58.877Z,0.3333333333333333
2022-10-09T19:30:59.441Z,0.3333333333333333
2022-10-09T19:33:59.049Z,0
2022-10-09T19:36:59.476Z,0
2022-10-09T19:39:59.932Z,0
2022-10-09T19:42:58.895Z,0
2022-10-09T19:45:59.656Z,0
2022-10-09T19:48:59.325Z,0.3333333333333333
2022-10-09T19:51:58.900Z,0.3333333333333333
2022-10-09T19:54:58.483Z,0.6666666666666666
2022-10-09T19:57:58.991Z,0.3333333333333333
2022-10-09T20:00:59.197Z,0.3333333333333333
2022-10-09T20:03:59.510Z,0
2022-10-09T20:06:58.400Z,0
2022-10-09T20:09:58.395Z,0
2022-10-09T20:12:59.191Z,0.3333333333333333
2022-10-09T20:15:59.236Z,0
2022-10-09T20:18:59.557Z,0.3333333333333333
2022-10-09T20:21:59.199Z,0
2022-10-09T20:24:59.020Z,0
2022-10-09T20:27:59.319Z,0
2022-10-09T20:30:59.601Z,0
2022-10-09T20:34:01.119Z,0
2022-10-09T20:36:58.921Z,0
2022-10-09T20:39:59.462Z,0
2022-10-09T20:42:59.239Z,0
2022-10-09T20:45:59.312Z,0
2022-10-09T20:48:59.066Z,0.3333333333333333
2022-10-09T20:51:59.131Z,0
2022-10-09T20:54:58.882Z,0
2022-10-09T20:57:59.002Z,0
2022-10-09T21:00:59.005Z,0
2022-10-09T21:03:58.616Z,0
2022-10-09T21:06:58.559Z,0
2022-10-09T21:09:58.852Z,0
2022-10-09T21:12:59.283Z,0
2022-10-09T21:15:59.060Z,0
2022-10-09T21:18:58.604Z,0
2022-10-09T21:21:59.569Z,0
2022-10-09T21:24:59.219Z,0
2022-10-09T21:27:59.513Z,0
2022-10-09T21:30:59.087Z,0
2022-10-09T21:33:59.005Z,0
2022-10-09T21:37:20.009Z,0
2022-10-09T21:39:59.085Z,0
2022-10-09T21:42:58.702Z,0
2022-10-09T21:45:59.357Z,0
2022-10-09T21:48:58.523Z,0
2022-10-09T21:51:59.365Z,0
2022-10-09T21:54:59.074Z,0
2022-10-09T21:57:58.860Z,0
2022-10-09T22:00:59.859Z,0
2022-10-09T22:03:59.591Z,0
2022-10-09T22:06:58.742Z,0
2022-10-09T22:09:59.243Z,0
2022-10-09T22:12:58.901Z,0
2022-10-09T22:15:58.935Z,0
2022-10-09T22:18:59.150Z,0
2022-10-09T22:21:58.852Z,0
2022-10-09T22:24:59.088Z,0
2022-10-09T22:27:59.271Z,0
2022-10-09T22:30:59.356Z,0
2022-10-09T22:33:59.376Z,0
2022-10-09T22:36:58.291Z,0
2022-10-09T22:39:58.410Z,0
2022-10-09T22:42:58.426Z,0
2022-10-09T22:45:59.040Z,0
2022-10-09T22:48:58.988Z,0
2022-10-09T22:51:58.815Z,0
2022-10-09T22:54:59.485Z,0
2022-10-09T22:57:58.723Z,0
2022-10-09T23:00:58.872Z,0
2022-10-09T23:03:58.813Z,0
2022-10-09T23:06:59.776Z,0
2022-10-09T23:09:59.405Z,0
2022-10-09T23:12:58.736Z,0
2022-10-09T23:15:59.497Z,0
2022-10-09T23:19:00.978Z,0
2022-10-09T23:21:59.620Z,0
2022-10-09T23:24:58.994Z,0
2022-10-09T23:27:58.589Z,0
2022-10-09T23:31:13.961Z,0
2022-10-09T23:33:58.770Z,0
2022-10-09T23:36:58.621Z,0
2022-10-09T23:39:59.167Z,0
2022-10-09T23:42:59.090Z,0
2022-10-09T23:45:59.207Z,0
2022-10-09T23:48:58.487Z,0
2022-10-09T23:51:59.236Z,0
2022-10-09T23:54:59.302Z,0
2022-10-09T23:57:58.202Z,0
